Time;durP1;ratioP1;P1;durP2;ratioP2;P2;SDS_P1;SDS_P2;PMS_P1;PMS_P2;Temp;Humidity;BMP_temperature;BMP_pressure;BME280_temperature;BME280_humidity;BME280_pressure;Samples;Min_cycle;Max_cycle;Signal;HPM_P1;HPM_P2
2022/03/19 00:00:35;;;;;;;25.13;14.00;;;;;;;4.62;42.39;96592.09;5034975;28;20738;-81
2022/03/19 00:03:02;;;;;;;27.90;15.30;;;;;;;4.66;42.57;96601.22;5036599;28;20195;-83
2022/03/19 00:05:29;;;;;;;25.50;14.83;;;;;;;4.66;42.39;96603.75;5031361;28;20198;-85
2022/03/19 00:07:59;;;;;;;22.80;14.73;;;;;;;4.61;42.60;96592.13;5033008;28;20191;-84
2022/03/19 00:10:26;;;;;;;27.03;14.50;;;;;;;4.62;42.70;96602.22;5032404;28;20265;-84
2022/03/19 00:12:54;;;;;;;33.13;14.83;;;;;;;4.61;42.76;96597.19;5040593;28;20179;-78
2022/03/19 00:15:21;;;;;;;27.60;14.47;;;;;;;4.60;42.35;96598.91;5052180;28;20237;-85
2022/03/19 00:17:48;;;;;;;28.80;14.97;;;;;;;4.58;42.87;96594.75;5052275;28;20214;-83
2022/03/19 00:20:15;;;;;;;27.87;14.13;;;;;;;4.60;42.83;96596.38;5051802;28;20187;-75
2022/03/19 00:22:41;;;;;;;24.57;14.83;;;;;;;4.57;42.79;96596.47;5043720;28;20293;-74
2022/03/19 00:25:12;;;;;;;21.27;13.53;;;;;;;4.56;42.75;96597.34;5045937;28;20195;-78
2022/03/19 00:27:40;;;;;;;23.43;14.00;;;;;;;4.56;42.97;96588.94;5051061;28;20731;-74
2022/03/19 00:30:07;;;;;;;25.90;14.67;;;;;;;4.50;43.16;96589.97;5049074;28;20618;-74
2022/03/19 00:32:34;;;;;;;25.90;13.60;;;;;;;4.55;43.37;96592.34;5050864;28;20274;-74
2022/03/19 00:35:01;;;;;;;19.87;13.57;;;;;;;4.48;43.41;96586.66;5031186;28;20219;-74
2022/03/19 00:37:28;;;;;;;26.07;15.03;;;;;;;4.49;43.33;96590.84;5030840;28;20228;-77
2022/03/19 00:39:55;;;;;;;21.30;13.93;;;;;;;4.24;43.36;96551.19;5031095;28;20192;-76
2022/03/19 00:42:24;;;;;;;22.10;12.90;;;;;;;4.44;43.45;96583.41;5031176;28;20287;-75
2022/03/19 00:44:51;;;;;;;26.20;14.30;;;;;;;4.43;43.58;96588.53;5045083;28;20210;-74
2022/03/19 00:47:18;;;;;;;21.37;13.63;;;;;;;4.37;43.72;96579.44;5051288;28;20183;-74
2022/03/19 00:49:45;;;;;;;21.23;12.93;;;;;;;4.40;43.72;96583.56;5051017;28;20285;-75
2022/03/19 00:52:12;;;;;;;25.70;13.53;;;;;;;4.39;43.76;96589.50;5042237;28;20537;-74
2022/03/19 00:54:38;;;;;;;21.83;13.63;;;;;;;4.32;43.69;96581.31;5031079;28;20219;-76
2022/03/19 00:57:05;;;;;;;24.67;14.20;;;;;;;4.36;43.83;96587.94;5031169;28;20621;-73
2022/03/19 00:59:33;;;;;;;20.87;13.70;;;;;;;4.35;44.36;96598.91;5030947;28;20271;-74
2022/03/19 01:02:00;;;;;;;22.73;14.17;;;;;;;4.35;43.94;96595.56;5036392;28;20199;-83
2022/03/19 01:04:27;;;;;;;21.03;13.13;;;;;;;4.32;43.82;96588.06;5050313;28;20187;-83
2022/03/19 01:06:54;;;;;;;21.60;13.43;;;;;;;4.33;43.87;96599.88;5050432;28;20202;-83
2022/03/19 01:09:21;;;;;;;27.43;14.13;;;;;;;4.31;44.05;96594.00;5051011;28;20183;-83
2022/03/19 01:11:47;;;;;;;26.83;14.20;;;;;;;4.28;44.08;96589.91;5050368;28;20597;-83
2022/03/19 01:14:14;;;;;;;26.60;14.73;;;;;;;4.25;44.16;96584.94;5051131;28;20222;-86
2022/03/19 01:16:42;;;;;;;25.17;13.93;;;;;;;4.22;44.32;96595.97;5051018;28;20202;-83
2022/03/19 01:19:09;;;;;;;24.83;14.07;;;;;;;4.21;44.27;96593.50;5051373;28;20198;-85
2022/03/19 01:21:36;;;;;;;26.03;13.83;;;;;;;4.21;44.41;96593.50;5053027;28;20194;-78
2022/03/19 01:24:03;;;;;;;23.83;12.90;;;;;;;4.19;44.50;96591.03;5051509;28;20662;-84
2022/03/19 01:26:33;;;;;;;19.43;12.53;;;;;;;4.17;44.47;96581.81;5053386;28;20183;-78
2022/03/19 01:29:00;;;;;;;22.73;13.73;;;;;;;4.14;44.48;96579.41;5055117;28;20195;-87
2022/03/19 01:31:27;;;;;;;21.30;13.83;;;;;;;4.16;44.29;96585.25;5054011;28;20660;-79
2022/03/19 01:33:55;;;;;;;28.87;13.70;;;;;;;4.13;44.62;96583.63;5053683;28;20614;-81
2022/03/19 01:36:22;;;;;;;21.53;12.37;;;;;;;4.12;44.79;96583.69;5050383;28;20195;-78
2022/03/19 01:38:49;;;;;;;22.57;14.10;;;;;;;4.10;44.85;96571.09;5047305;28;20651;-78
2022/03/19 01:41:16;;;;;;;23.83;13.30;;;;;;;4.09;44.79;96571.97;5036125;28;20195;-79
2022/03/19 01:43:43;;;;;;;21.47;13.63;;;;;;;4.08;44.57;96564.44;5031692;28;20192;-78
2022/03/19 01:46:10;;;;;;;18.83;12.53;;;;;;;4.09;44.98;96568.59;5031745;28;20195;-76
2022/03/19 01:48:36;;;;;;;20.30;13.93;;;;;;;4.07;45.05;96570.38;5031283;28;20236;-74
2022/03/19 01:51:05;;;;;;;24.03;12.83;;;;;;;4.07;45.07;96573.72;5030483;28;20207;-76
2022/03/19 01:53:31;;;;;;;21.10;14.10;;;;;;;4.02;45.21;96566.28;5031915;28;20210;-83
2022/03/19 01:55:59;;;;;;;22.63;13.50;;;;;;;4.02;45.36;96566.28;5031188;28;20211;-83
2022/03/19 01:58:26;;;;;;;21.20;13.10;;;;;;;4.01;45.38;96567.13;5031955;28;20191;-82
2022/03/19 02:00:54;;;;;;;23.20;13.13;;;;;;;3.98;45.40;96561.38;5031859;28;20192;-82
2022/03/19 02:03:22;;;;;;;25.60;13.60;;;;;;;3.98;45.44;96566.44;5030635;28;20269;-74
2022/03/19 02:05:49;;;;;;;21.63;12.90;;;;;;;3.96;45.48;96568.19;5031200;28;20662;-74
2022/03/19 02:08:19;;;;;;;24.30;13.47;;;;;;;3.96;45.43;96563.13;5030194;28;20574;-74
2022/03/19 02:10:46;;;;;;;23.87;13.37;;;;;;;3.93;45.31;96553.09;5030112;28;20195;-75
2022/03/19 02:13:13;;;;;;;19.77;12.53;;;;;;;3.92;45.26;96551.44;5030572;28;20196;-74
2022/03/19 02:15:40;;;;;;;19.10;12.07;;;;;;;3.94;45.20;96554.78;5029857;28;20199;-74
2022/03/19 02:18:07;;;;;;;18.43;11.73;;;;;;;3.92;45.20;96556.50;5030420;28;20183;-75
2022/03/19 02:20:35;;;;;;;21.53;12.97;;;;;;;3.87;45.31;96555.84;5030077;28;20191;-77
2022/03/19 02:25:48;;;;;;;19.40;11.87;;;;;;;3.85;45.27;96557.59;5049756;28;20570;-74
2022/03/19 02:28:15;;;;;;;19.20;12.23;;;;;;;3.78;45.15;96549.38;5040781;28;20207;-78
2022/03/19 02:30:45;;;;;;;20.10;11.03;;;;;;;3.80;45.19;96555.22;5030605;28;20202;-77
2022/03/19 02:33:12;;;;;;;20.10;12.90;;;;;;;3.81;45.26;96554.34;5029946;28;20188;-77
2022/03/19 02:35:39;;;;;;;19.73;12.33;;;;;;;3.81;45.41;96556.88;5029652;28;20238;-86
2022/03/19 02:38:07;;;;;;;21.57;11.83;;;;;;;3.79;45.30;96545.97;5031226;28;20238;-76
2022/03/19 02:40:34;;;;;;;18.17;12.10;;;;;;;3.72;45.27;96547.88;5030237;28;20556;-75
2022/03/19 02:43:01;;;;;;;23.93;12.77;;;;;;;3.76;45.41;96558.75;5031732;28;20195;-76
2022/03/19 02:45:28;;;;;;;18.37;11.20;;;;;;;3.73;45.50;96554.59;5031288;28;20187;-74
2022/03/19 02:48:00;;;;;;;21.33;12.67;;;;;;;3.70;45.42;96557.22;5033686;28;20180;-74
2022/03/19 02:50:29;;;;;;;20.43;11.67;;;;;;;3.72;45.48;96563.06;5032961;28;20200;-76
2022/03/19 02:52:57;;;;;;;20.47;10.97;;;;;;;3.72;45.54;96568.13;5030404;28;20191;-75
2022/03/19 02:55:26;;;;;;;18.43;12.10;;;;;;;3.71;45.69;96568.16;5032220;28;20223;-77
2022/03/19 02:57:52;;;;;;;15.53;10.80;;;;;;;3.69;45.43;96565.69;5035879;28;20187;-79
2022/03/19 03:00:22;;;;;;;20.27;10.57;;;;;;;3.67;45.68;96564.94;5049566;28;20214;-80
2022/03/19 03:02:49;;;;;;;19.20;12.13;;;;;;;3.66;45.50;96563.25;5051599;28;20665;-79
2022/03/19 03:05:16;;;;;;;19.20;11.00;;;;;;;3.67;45.51;96570.00;5054469;28;20202;-83
2022/03/19 03:07:42;;;;;;;17.13;11.20;;;;;;;3.65;45.50;96575.97;5042102;28;20184;-84
2022/03/19 03:10:10;;;;;;;16.33;11.13;;;;;;;3.64;45.48;96566.72;5036251;28;20202;-74
2022/03/19 03:12:38;;;;;;;21.53;11.73;;;;;;;3.62;45.68;96573.50;5034106;28;20199;-84
2022/03/19 03:15:06;;;;;;;18.20;11.57;;;;;;;3.61;45.56;96569.34;5035256;28;20219;-85
2022/03/19 03:17:34;;;;;;;18.63;12.10;;;;;;;3.62;45.54;96571.00;5037685;28;20191;-83
2022/03/19 03:20:01;;;;;;;21.23;11.77;;;;;;;3.56;45.55;96563.59;5056256;28;20191;-84
2022/03/19 03:22:29;;;;;;;19.57;12.07;;;;;;;3.59;45.66;96561.00;5054643;28;20196;-81
2022/03/19 03:24:56;;;;;;;18.67;12.37;;;;;;;3.53;45.39;96562.00;5056831;28;20198;-83
2022/03/19 03:27:23;;;;;;;20.83;11.93;;;;;;;3.56;45.88;96572.03;5056544;28;20187;-81
2022/03/19 03:29:51;;;;;;;24.40;12.40;;;;;;;3.54;45.60;96566.19;5059927;28;20209;-84
2022/03/19 03:32:19;;;;;;;24.30;12.47;;;;;;;3.52;45.72;96560.34;5054882;28;20194;-81
2022/03/19 03:34:45;;;;;;;17.87;12.70;;;;;;;3.50;45.81;96565.47;5055129;28;20207;-83
2022/03/19 03:37:12;;;;;;;24.47;13.03;;;;;;;3.50;45.75;96562.09;5043519;28;20215;-83
2022/03/19 03:39:39;;;;;;;30.37;14.73;;;;;;;3.48;45.92;96563.84;5037121;28;20192;-83
2022/03/19 03:42:07;;;;;;;25.00;13.07;;;;;;;3.45;45.96;96559.69;5037401;28;20661;-77
2022/03/19 03:44:34;;;;;;;21.50;13.17;;;;;;;3.42;46.05;96559.81;5057968;28;20191;-79
2022/03/19 03:47:02;;;;;;;30.67;14.50;;;;;;;3.41;45.95;96563.22;5057790;28;20268;-86
2022/03/19 03:49:29;;;;;;;21.20;12.93;;;;;;;3.42;46.31;96559.00;5055991;28;20191;-80
2022/03/19 03:51:56;;;;;;;22.40;12.77;;;;;;;3.39;46.11;96559.06;5054256;28;20647;-85
2022/03/19 03:54:23;;;;;;;20.93;12.90;;;;;;;3.41;46.36;96562.38;5053608;28;20241;-82
2022/03/19 03:56:51;;;;;;;20.93;13.50;;;;;;;3.40;46.42;96564.06;5053307;28;20183;-81
2022/03/19 03:59:19;;;;;;;25.20;13.60;;;;;;;3.39;46.32;96564.97;5058395;28;20183;-83
2022/03/19 04:01:46;;;;;;;22.53;14.20;;;;;;;3.38;46.33;96563.31;5056785;28;20223;-83
2022/03/19 04:04:14;;;;;;;24.40;13.50;;;;;;;3.36;46.66;96569.28;5051722;28;20199;-84
2022/03/19 04:06:41;;;;;;;23.60;13.60;;;;;;;3.36;46.57;96561.69;5039613;28;20330;-85
2022/03/19 04:09:07;;;;;;;24.03;12.70;;;;;;;3.35;46.46;96565.94;5032282;28;20191;-82
2022/03/19 04:11:34;;;;;;;22.20;12.93;;;;;;;3.35;46.36;96570.16;5032420;28;20187;-83
2022/03/19 04:14:01;;;;;;;22.13;12.53;;;;;;;3.30;46.78;96561.91;5031212;28;20192;-81
2022/03/19 04:16:28;;;;;;;21.17;12.83;;;;;;;3.32;46.63;96565.19;5037742;28;20669;-83
2022/03/19 04:18:55;;;;;;;20.50;12.83;;;;;;;3.32;46.72;96566.00;5051602;28;20183;-83
2022/03/19 04:21:23;;;;;;;21.10;13.57;;;;;;;3.30;46.57;96564.44;5051379;28;20776;-82
2022/03/19 04:23:50;;;;;;;25.03;14.10;;;;;;;3.28;47.02;96564.44;5051544;28;20198;-84
2022/03/19 04:26:17;;;;;;;26.80;13.30;;;;;;;3.31;47.07;96574.47;5051596;28;20195;-85
2022/03/19 04:28:43;;;;;;;23.70;13.90;;;;;;;3.34;47.05;96573.56;5051714;28;20179;-83
2022/03/19 04:31:10;;;;;;;32.63;13.87;;;;;;;3.34;47.05;96574.41;5051327;28;20214;-84
2022/03/19 04:33:37;;;;;;;22.27;12.73;;;;;;;3.32;47.34;96580.34;5051469;28;20191;-79
2022/03/19 04:38:50;;;;;;;23.07;13.20;;;;;;;3.30;47.33;96579.59;5031392;28;20289;-82
2022/03/19 04:41:17;;;;;;;23.23;13.20;;;;;;;3.32;47.16;96575.31;5031321;28;20183;-83
2022/03/19 04:43:43;;;;;;;20.60;13.47;;;;;;;3.34;47.38;96573.56;5032040;28;20184;-86
2022/03/19 04:46:10;;;;;;;20.30;13.20;;;;;;;3.35;47.22;96570.97;5031404;28;20258;-79
2022/03/19 04:48:37;;;;;;;19.07;13.00;;;;;;;3.37;47.35;96569.25;5031838;28;20647;-84
2022/03/19 04:51:04;;;;;;;24.60;13.80;;;;;;;3.35;47.28;96563.41;5031137;28;20187;-83
2022/03/19 04:53:31;;;;;;;26.50;13.47;;;;;;;3.43;47.50;96568.22;5031824;28;20202;-77
2022/03/19 04:55:59;;;;;;;22.63;14.03;;;;;;;3.46;47.29;96563.09;5042872;28;20218;-74
2022/03/19 04:58:26;;;;;;;21.93;12.87;;;;;;;3.53;47.12;96570.41;5051249;28;20191;-73
2022/03/19 05:00:53;;;;;;;20.80;13.00;;;;;;;3.57;47.29;96562.72;5050710;28;20604;-76
2022/03/19 05:03:20;;;;;;;21.90;13.10;;;;;;;3.64;46.99;96570.06;5050493;28;20199;-76
2022/03/19 05:05:47;;;;;;;23.03;13.17;;;;;;;3.74;47.04;96568.88;5036571;28;20188;-78
2022/03/19 05:08:14;;;;;;;23.23;13.30;;;;;;;3.85;47.02;96567.72;5030443;28;20184;-82
2022/03/19 05:13:26;;;;;;;21.97;13.33;;;;;;;4.17;46.28;96564.94;5030628;28;20612;-75
2022/03/19 05:15:54;;;;;;;22.37;12.87;;;;;;;4.40;46.22;96559.06;5030369;28;20222;-73
2022/03/19 05:18:21;;;;;;;22.37;12.17;;;;;;;4.78;45.85;96569.53;5030236;28;20199;-77
2022/03/19 05:20:48;;;;;;;20.83;12.07;;;;;;;5.20;45.58;96566.28;5030363;28;20309;-74
2022/03/19 05:23:15;;;;;;;21.23;11.53;;;;;;;5.67;45.50;96566.97;5030376;28;20199;-74
2022/03/19 05:25:41;;;;;;;19.30;11.67;;;;;;;6.19;45.16;96572.47;5044078;28;20308;-84
2022/03/19 05:28:08;;;;;;;20.97;12.37;;;;;;;6.73;45.05;96581.13;5050545;28;20195;-81
2022/03/19 05:30:38;;;;;;;20.50;12.73;;;;;;;7.33;44.78;96575.06;5050401;28;20199;-77
2022/03/19 05:33:05;;;;;;;20.37;12.37;;;;;;;7.93;44.26;96580.69;5050275;28;20191;-80
2022/03/19 05:35:32;;;;;;;19.67;11.27;;;;;;;8.51;43.82;96576.09;5049336;28;20210;-84
2022/03/19 05:38:00;;;;;;;17.03;11.73;;;;;;;9.15;43.12;96578.69;5050192;28;20325;-84
2022/03/19 05:40:27;;;;;;;18.17;10.50;;;;;;;9.76;42.35;96577.91;5050239;28;20269;-86
2022/03/19 05:42:53;;;;;;;13.97;10.93;;;;;;;10.38;41.57;96580.34;5050527;28;20183;-78
2022/03/19 05:45:21;;;;;;;15.80;11.13;;;;;;;10.96;40.78;96580.22;5044473;28;20180;-81
2022/03/19 05:47:49;;;;;;;13.03;10.33;;;;;;;11.59;39.85;96578.09;5032463;28;20282;-77
2022/03/19 05:50:17;;;;;;;20.23;12.00;;;;;;;12.19;39.09;96585.34;5031309;28;20198;-85
2022/03/19 05:52:46;;;;;;;17.67;11.17;;;;;;;12.78;38.25;96590.78;5036923;28;20196;-84
2022/03/19 05:55:13;;;;;;;17.90;11.60;;;;;;;13.36;37.67;96589.34;5032554;28;20776;-81
2022/03/19 05:57:41;;;;;;;22.10;12.80;;;;;;;13.90;37.10;96581.19;5031958;28;20195;-82
2022/03/19 06:00:10;;;;;;;18.33;11.87;;;;;;;14.53;36.12;96592.03;5031097;28;20292;-87
2022/03/19 06:02:40;;;;;;;18.27;12.53;;;;;;;15.11;35.39;96597.91;5030587;28;20196;-76
2022/03/19 06:05:10;;;;;;;17.57;11.77;;;;;;;15.65;34.46;96588.56;5046809;28;20191;-81
2022/03/19 06:07:36;;;;;;;15.17;11.70;;;;;;;16.18;33.80;96596.31;5051221;28;20191;-87
2022/03/19 06:10:05;;;;;;;18.27;11.57;;;;;;;16.72;33.48;96597.88;5052169;28;20233;-84
2022/03/19 06:12:32;;;;;;;15.80;11.40;;;;;;;17.22;32.55;96598.75;5050773;28;20278;-81
2022/03/19 06:14:58;;;;;;;16.80;11.23;;;;;;;17.68;32.05;96594.78;5051113;28;20222;-78
2022/03/19 06:17:25;;;;;;;17.83;11.27;;;;;;;18.18;31.39;96592.09;5050719;28;20662;-80
2022/03/19 06:19:54;;;;;;;15.43;10.70;;;;;;;18.63;30.82;96594.03;5050791;28;20195;-75
2022/03/19 06:22:22;;;;;;;18.90;11.90;;;;;;;19.10;30.40;96596.63;5051803;28;20609;-80
2022/03/19 06:24:49;;;;;;;20.90;11.97;;;;;;;19.53;29.90;96593.38;5063396;28;20179;-80
2022/03/19 06:27:16;;;;;;;18.63;11.53;;;;;;;19.95;29.26;96590.25;5061147;28;20199;-75
2022/03/19 06:29:43;;;;;;;16.97;12.57;;;;;;;20.33;28.78;96590.06;5054316;28;20195;-73
2022/03/19 06:32:09;;;;;;;20.13;12.30;;;;;;;20.77;28.26;96591.69;5044961;28;20601;-77
2022/03/19 06:34:36;;;;;;;18.90;12.37;;;;;;;21.17;27.90;96594.63;5045428;28;20195;-86
2022/03/19 06:37:21;;;;;;;16.23;11.73;;;;;;;21.55;27.56;96595.94;5037493;28;20681;-85
2022/03/19 06:39:53;;;;;;;16.70;12.33;;;;;;;21.95;27.13;96603.00;5053606;28;20207;-84
2022/03/19 06:42:20;;;;;;;14.97;11.63;;;;;;;22.31;26.72;96596.69;5053883;28;20221;-75
2022/03/19 06:44:46;;;;;;;9.23;6.03;;;;;;;22.70;39.14;96604.59;5040961;28;20191;-81
2022/03/19 06:47:13;;;;;;;10.10;6.15;;;;;;;23.17;38.11;96609.09;5053063;28;20191;-75
2022/03/19 06:49:41;;;;;;;11.32;5.15;;;;;;;23.59;38.08;96594.84;5046882;28;20191;-81
2022/03/19 06:52:08;;;;;;;10.23;6.47;;;;;;;23.74;37.15;96561.78;5053754;28;20190;-79
2022/03/19 06:54:35;;;;;;;13.32;7.35;;;;;;;24.23;36.18;96591.00;5053204;28;20696;-77
2022/03/19 06:57:03;;;;;;;8.57;6.90;;;;;;;24.58;35.02;96601.84;5053044;28;20230;-79
2022/03/19 06:59:31;;;;;;;10.43;7.43;;;;;;;24.82;34.13;96594.72;5053146;28;20180;-76
2022/03/19 07:01:57;;;;;;;9.25;7.50;;;;;;;25.04;33.39;96599.06;5052688;28;20639;-78
2022/03/19 07:04:24;;;;;;;13.80;8.88;;;;;;;25.20;32.45;96596.28;5052621;28;20199;-76
2022/03/19 07:06:51;;;;;;;11.30;7.88;;;;;;;25.39;31.98;96596.69;5052568;28;20237;-75
2022/03/19 07:09:18;;;;;;;12.63;8.77;;;;;;;25.43;31.27;96566.53;5052829;28;20179;-81
2022/03/19 07:11:44;;;;;;;18.48;9.68;;;;;;;25.71;31.01;96585.78;5050674;28;20618;-75
2022/03/19 07:14:14;;;;;;;16.38;10.32;;;;;;;25.86;29.74;96588.38;5041131;28;20183;-81
2022/03/19 07:16:42;;;;;;;19.80;11.73;;;;;;;25.84;24.15;96582.53;5052899;28;20211;-74
2022/03/19 07:19:08;;;;;;;17.95;12.15;;;;;;;25.45;22.76;96581.06;5052655;28;20249;-75
2022/03/19 07:21:35;;;;;;;17.48;11.55;;;;;;;24.98;23.39;96584.88;5052802;28;20669;-76
2022/03/19 07:24:02;;;;;;;14.70;10.63;;;;;;;24.90;24.50;96589.41;5056247;28;20662;-76
2022/03/19 07:26:32;;;;;;;15.35;11.10;;;;;;;24.98;24.63;96587.50;5053548;28;20194;-75
2022/03/19 07:28:59;;;;;;;14.07;10.60;;;;;;;25.15;24.30;96590.78;5046550;28;20204;-77
2022/03/19 07:31:27;;;;;;;12.23;10.30;;;;;;;25.32;24.11;96588.78;5030488;28;20189;-77
2022/03/19 07:33:54;;;;;;;15.73;11.65;;;;;;;25.49;24.30;96584.13;5040338;28;21021;-76
2022/03/19 07:36:21;;;;;;;15.27;10.65;;;;;;;25.68;23.83;96587.97;5034794;28;20729;-80
2022/03/19 07:38:47;;;;;;;15.40;10.70;;;;;;;25.85;23.25;96585.94;5030318;28;20191;-75
2022/03/19 07:43:59;;;;;;;15.02;11.23;;;;;;;26.19;23.29;96583.44;5029839;28;20294;-83
2022/03/19 07:46:28;;;;;;;13.05;9.98;;;;;;;26.31;23.24;96582.94;5029959;28;20184;-76
2022/03/19 07:48:55;;;;;;;13.10;9.80;;;;;;;26.41;22.94;96581.59;5028480;28;20188;-79
2022/03/19 07:51:21;;;;;;;15.02;11.02;;;;;;;26.49;22.79;96586.75;5029516;28;20283;-78
2022/03/19 07:53:48;;;;;;;13.30;10.50;;;;;;;26.56;22.54;96588.63;5030737;28;20250;-79
2022/03/19 07:56:15;;;;;;;18.52;11.38;;;;;;;26.61;22.61;96587.03;5030086;28;20226;-77
2022/03/19 07:58:42;;;;;;;13.75;9.95;;;;;;;26.63;22.26;96590.25;5029439;28;20184;-82
2022/03/19 08:01:09;;;;;;;15.93;11.30;;;;;;;26.71;21.97;96591.94;5030616;28;20196;-81
2022/03/19 08:03:37;;;;;;;12.05;10.52;;;;;;;26.74;22.06;96589.75;5029403;28;20195;-81
2022/03/19 08:06:05;;;;;;;12.35;9.68;;;;;;;26.78;21.66;96595.44;5029573;28;20191;-73
2022/03/19 08:08:33;;;;;;;10.98;9.05;;;;;;;26.80;21.62;96589.97;5029271;28;20331;-75
2022/03/19 08:11:01;;;;;;;14.85;10.75;;;;;;;26.80;21.39;96593.41;5029610;28;20196;-79
2022/03/19 08:13:28;;;;;;;14.02;9.63;;;;;;;26.80;20.90;96584.72;5029801;28;20579;-79
2022/03/19 08:15:55;;;;;;;16.25;9.55;;;;;;;26.79;20.75;96588.34;5029785;28;20281;-76
2022/03/19 08:18:23;;;;;;;10.85;9.00;;;;;;;26.75;20.95;96593.19;5040106;28;20206;-77
2022/03/19 08:20:52;;;;;;;10.60;8.77;;;;;;;26.69;20.31;96588.72;5051930;28;20187;-76
2022/03/19 08:23:20;;;;;;;11.20;8.30;;;;;;;26.60;20.58;96576.69;5051586;28;20199;-82
2022/03/19 08:25:47;;;;;;;9.98;8.05;;;;;;;26.59;20.08;96580.34;5051048;28;20628;-73
2022/03/19 08:28:14;;;;;;;10.05;7.80;;;;;;;26.54;19.97;96583.53;5051287;28;20197;-75
2022/03/19 08:30:41;;;;;;;9.85;8.52;;;;;;;26.44;19.95;96575.19;5050958;28;20202;-79
2022/03/19 08:33:08;;;;;;;9.88;7.03;;;;;;;26.30;20.23;96570.84;5051746;28;20264;-74
2022/03/19 08:35:35;;;;;;;12.25;8.75;;;;;;;26.20;20.06;96571.94;5050705;28;20214;-77
2022/03/19 08:40:48;;;;;;;9.77;7.18;;;;;;;25.81;19.99;96576.84;5050971;28;20183;-76
2022/03/19 08:43:15;;;;;;;8.13;6.90;;;;;;;25.62;19.82;96576.41;5049471;28;20199;-73
2022/03/19 08:45:42;;;;;;;10.10;7.47;;;;;;;25.43;19.93;96567.34;5050884;28;20194;-74
2022/03/19 08:48:09;;;;;;;7.90;6.60;;;;;;;25.20;19.61;96567.47;5051555;28;20612;-73
2022/03/19 08:50:36;;;;;;;9.02;7.43;;;;;;;24.93;19.68;96560.25;5050561;28;20191;-74
2022/03/19 08:53:04;;;;;;;11.75;7.65;;;;;;;24.61;19.81;96566.63;5050800;28;20195;-73
2022/03/19 08:55:31;;;;;;;8.90;7.55;;;;;;;24.32;20.35;96560.38;5050463;28;20194;-76
2022/03/19 08:57:59;;;;;;;8.35;7.28;;;;;;;24.14;20.27;96559.88;5051242;28;20187;-78
2022/03/19 09:00:26;;;;;;;7.97;7.10;;;;;;;23.96;20.32;96555.78;5050175;28;20191;-78
2022/03/19 09:02:55;;;;;;;9.82;7.70;;;;;;;23.77;20.21;96562.25;5050961;28;20187;-80
2022/03/19 09:05:23;;;;;;;8.75;7.85;;;;;;;23.55;20.30;96552.59;5050347;28;20659;-82
2022/03/19 09:07:50;;;;;;;9.40;7.45;;;;;;;23.19;20.78;96560.94;5049006;28;20194;-73
2022/03/19 09:10:18;;;;;;;9.93;7.82;;;;;;;22.86;20.74;96562.03;5050521;28;20681;-74
2022/03/19 09:12:46;;;;;;;8.85;7.50;;;;;;;22.52;20.63;96550.84;5050778;28;20198;-75
2022/03/19 09:15:13;;;;;;;8.98;7.43;;;;;;;22.09;20.53;96551.22;5050709;28;20689;-74
2022/03/19 09:17:41;;;;;;;11.05;7.75;;;;;;;21.71;20.63;96559.47;5050294;28;20301;-79
2022/03/19 09:20:10;;;;;;;8.75;7.57;;;;;;;21.29;20.56;96549.13;5050426;28;20195;-74
2022/03/19 09:22:37;;;;;;;8.88;7.22;;;;;;;20.99;20.67;96553.91;5049962;28;20195;-72
2022/03/19 09:25:04;;;;;;;8.77;7.40;;;;;;;20.79;20.84;96555.13;5050621;28;20282;-72
2022/03/19 09:27:33;;;;;;;10.97;7.47;;;;;;;20.62;21.00;96546.41;5050333;28;20194;-73
2022/03/19 09:29:59;;;;;;;12.50;7.23;;;;;;;20.51;20.93;96541.50;5050268;28;20187;-74
2022/03/19 09:32:26;;;;;;;9.07;7.30;;;;;;;20.38;21.00;96539.28;5049058;28;20199;-73
2022/03/19 09:34:53;;;;;;;9.80;7.17;;;;;;;20.26;21.16;96543.91;5050180;28;20574;-74
2022/03/19 09:37:20;;;;;;;8.87;7.50;;;;;;;20.10;21.13;96538.59;5049761;28;20238;-74
2022/03/19 09:39:47;;;;;;;8.50;7.47;;;;;;;19.91;21.41;96530.97;5050154;28;20199;-73
2022/03/19 09:42:14;;;;;;;8.37;7.30;;;;;;;19.72;21.35;96530.16;5050180;28;20186;-74
2022/03/19 09:44:43;;;;;;;8.90;7.50;;;;;;;19.59;21.68;96532.28;5050437;28;20199;-75
2022/03/19 09:47:11;;;;;;;10.67;8.30;;;;;;;19.34;21.72;96531.22;5050030;28;20638;-78
2022/03/19 09:49:38;;;;;;;10.10;6.67;;;;;;;19.07;21.90;96526.06;5050242;28;20597;-82
2022/03/19 09:52:05;;;;;;;10.77;7.60;;;;;;;18.63;21.74;96536.22;5050575;28;20210;-79
2022/03/19 09:54:32;;;;;;;10.33;7.60;;;;;;;18.17;21.94;96541.22;5050742;28;20214;-80
2022/03/19 09:57:01;;;;;;;11.60;7.83;;;;;;;17.82;22.23;96535.81;5049427;28;20622;-75
2022/03/19 09:59:28;;;;;;;8.30;6.83;;;;;;;17.52;22.33;96530.59;5050087;28;20179;-82
2022/03/19 10:01:56;;;;;;;8.27;6.93;;;;;;;17.30;22.64;96533.44;5050592;28;20241;-80
2022/03/19 10:04:25;;;;;;;6.77;6.17;;;;;;;17.11;22.92;96538.59;5049708;28;20256;-78
2022/03/19 10:09:43;;;;;;;8.10;7.23;;;;;;;16.73;23.03;96527.19;5050433;28;20202;-77
2022/03/19 10:12:15;;;;;;;8.57;7.23;;;;;;;16.57;23.33;96527.63;5051292;28;20190;-78
2022/03/19 10:14:42;;;;;;;8.40;7.47;;;;;;;16.30;23.40;96520.41;5054332;28;20202;-82
2022/03/19 10:17:10;;;;;;;9.40;7.37;;;;;;;16.05;23.65;96527.59;5054115;28;20230;-79
2022/03/19 10:19:50;;;;;;;8.77;7.23;;;;;;;15.82;23.78;96530.44;5053658;28;20190;-83
2022/03/19 10:22:25;;;;;;;8.70;7.40;;;;;;;15.65;23.72;96532.63;5053015;28;20238;-79
2022/03/19 10:25:00;;;;;;;9.27;7.77;;;;;;;15.38;23.81;96511.59;5053812;28;20261;-81
2022/03/19 10:27:31;;;;;;;9.80;7.60;;;;;;;15.21;23.96;96518.09;5054221;28;20198;-82
2022/03/19 10:30:10;;;;;;;10.03;7.60;;;;;;;15.17;24.10;96521.84;5054440;28;20191;-80
2022/03/19 10:32:40;;;;;;;10.20;7.17;;;;;;;15.09;24.11;96526.78;5053870;28;20570;-76
2022/03/19 10:35:24;;;;;;;12.40;7.07;;;;;;;14.91;24.33;96536.78;5053497;28;20222;-81
2022/03/19 10:37:51;;;;;;;7.70;6.60;;;;;;;14.75;24.36;96521.66;5053270;28;20686;-80
2022/03/19 10:40:18;;;;;;;9.93;6.73;;;;;;;14.61;24.43;96525.31;5055567;28;20195;-78
2022/03/19 10:42:45;;;;;;;7.57;6.57;;;;;;;14.33;24.47;96498.22;5056934;28;20179;-74
2022/03/19 10:45:20;;;;;;;8.27;6.93;;;;;;;14.22;24.94;96517.06;5054775;28;20733;-81
2022/03/19 10:47:48;;;;;;;10.90;6.80;;;;;;;13.98;25.04;96517.13;5054960;28;20187;-75
2022/03/19 10:50:20;;;;;;;9.43;7.13;;;;;;;13.74;25.21;96512.06;5053609;28;20194;-79
2022/03/19 10:52:47;;;;;;;8.70;6.53;;;;;;;13.52;25.42;96519.69;5053245;28;20195;-79
2022/03/19 10:55:14;;;;;;;8.83;6.97;;;;;;;13.46;25.54;96512.41;5053301;28;20223;-74
2022/03/19 10:57:42;;;;;;;9.17;6.97;;;;;;;13.44;25.74;96504.00;5053524;28;20776;-79
2022/03/19 11:00:11;;;;;;;10.17;6.47;;;;;;;13.48;25.65;96506.22;5053944;28;20249;-75
2022/03/19 11:02:43;;;;;;;7.97;6.93;;;;;;;13.49;25.59;96522.47;5052589;28;20199;-73
2022/03/19 11:05:12;;;;;;;6.93;6.23;;;;;;;13.44;25.40;96502.25;5052995;28;20195;-74
2022/03/19 11:07:42;;;;;;;8.87;7.27;;;;;;;13.41;25.67;96510.16;5052889;28;20227;-74
2022/03/19 11:10:10;;;;;;;7.07;6.20;;;;;;;13.35;25.65;96496.94;5053399;28;20222;-76
2022/03/19 11:12:40;;;;;;;11.30;6.27;;;;;;;13.36;25.66;96499.41;5052983;28;20691;-76
2022/03/19 11:15:10;;;;;;;7.87;5.30;;;;;;;13.35;25.59;96504.66;5053143;28;20191;-73
2022/03/19 11:17:40;;;;;;;10.13;6.33;;;;;;;13.27;25.53;96490.59;5052381;28;20320;-74
2022/03/19 11:20:09;;;;;;;5.97;5.30;;;;;;;13.27;25.91;96488.03;5053053;28;20207;-75
2022/03/19 11:22:40;;;;;;;9.30;6.63;;;;;;;13.31;25.84;96486.06;5052498;28;20199;-76
2022/03/19 11:25:14;;;;;;;6.97;6.20;;;;;;;13.42;25.83;96490.41;5053204;28;20198;-77
2022/03/19 11:27:44;;;;;;;7.47;6.00;;;;;;;13.51;25.75;96489.75;5052313;28;20191;-81
2022/03/19 11:30:19;;;;;;;7.30;6.17;;;;;;;13.61;26.06;96483.03;5052805;28;20191;-73
2022/03/19 11:33:03;;;;;;;8.60;6.73;;;;;;;13.70;25.89;96482.34;5052566;28;20190;-73
2022/03/19 11:35:34;;;;;;;6.77;5.73;;;;;;;13.75;25.79;96492.28;5052872;28;20222;-76
2022/03/19 11:38:05;;;;;;;8.50;6.60;;;;;;;13.66;25.90;96487.84;5052074;28;20234;-74
2022/03/19 11:40:35;;;;;;;9.23;6.20;;;;;;;13.50;25.76;96475.25;5052365;28;20202;-73
2022/03/19 11:43:04;;;;;;;6.97;5.50;;;;;;;13.50;26.06;96470.13;5052059;28;20219;-73
2022/03/19 11:45:52;;;;;;;8.80;6.37;;;;;;;13.48;26.02;96464.28;5052498;28;20187;-73